createdAt,value
2018-08-19T00:00:43.558Z,3.10
2018-08-19T00:01:43.506Z,3.40
2018-08-19T00:02:43.468Z,3.20
2018-08-19T00:03:43.449Z,3.10
2018-08-19T00:04:43.376Z,2.80
2018-08-19T00:05:43.319Z,3.00
2018-08-19T00:06:43.271Z,2.70
2018-08-19T00:07:43.225Z,2.80
2018-08-19T00:08:43.178Z,2.80
2018-08-19T00:09:43.157Z,2.70
2018-08-19T00:10:43.090Z,2.70
2018-08-19T00:11:43.082Z,2.80
2018-08-19T00:12:43.000Z,2.90
2018-08-19T00:13:42.965Z,3.00
2018-08-19T00:14:42.949Z,2.90
2018-08-19T00:15:42.879Z,2.70
2018-08-19T00:16:42.838Z,3.30
2018-08-19T00:17:42.797Z,3.20
2018-08-19T00:18:42.763Z,3.50
2018-08-19T00:19:42.751Z,4.40
2018-08-19T00:20:42.687Z,4.60
2018-08-19T00:21:42.666Z,5.00
2018-08-19T00:22:42.610Z,5.20
2018-08-19T00:23:42.564Z,5.60
2018-08-19T00:24:42.556Z,5.00
2018-08-19T00:25:42.483Z,5.60
2018-08-19T00:26:42.442Z,5.40
2018-08-19T00:27:42.401Z,5.70
2018-08-19T00:28:42.363Z,5.00
2018-08-19T00:29:42.370Z,5.80
2018-08-19T00:30:42.278Z,5.50
2018-08-19T00:31:42.242Z,5.10
2018-08-19T00:32:42.201Z,5.50
2018-08-19T00:33:42.156Z,5.30
2018-08-19T00:34:42.114Z,5.50
2018-08-19T00:35:42.095Z,5.20
2018-08-19T00:36:42.026Z,4.70
2018-08-19T00:37:41.994Z,5.00
2018-08-19T00:38:41.936Z,4.80
2018-08-19T00:39:41.886Z,4.30
2018-08-19T00:40:41.863Z,4.70
2018-08-19T00:41:41.801Z,4.40
2018-08-19T00:42:41.748Z,4.10
2018-08-19T00:43:41.738Z,4.20
2018-08-19T00:44:41.665Z,4.70
2018-08-19T00:45:41.648Z,4.00
2018-08-19T00:46:41.585Z,4.00
2018-08-19T00:47:41.545Z,4.00
2018-08-19T00:48:41.503Z,4.00
2018-08-19T00:49:41.464Z,4.00
2018-08-19T00:50:41.457Z,4.00
2018-08-19T00:51:41.384Z,3.80
2018-08-19T00:52:41.343Z,3.70
2018-08-19T00:53:41.307Z,3.50
2018-08-19T00:54:41.270Z,3.60
2018-08-19T00:55:41.257Z,3.20
2018-08-19T00:56:41.195Z,3.30
2018-08-19T00:57:41.161Z,3.30
2018-08-19T00:58:41.126Z,3.30
2018-08-19T00:59:41.090Z,3.20
2018-08-19T01:00:41.087Z,3.40
2018-08-19T01:01:41.026Z,3.10
2018-08-19T01:02:40.993Z,3.40
2018-08-19T01:03:40.960Z,3.60
2018-08-19T01:04:40.924Z,3.10
2018-08-19T01:05:40.917Z,2.90
2018-08-19T01:06:40.858Z,2.80
2018-08-19T01:07:40.821Z,3.50
2018-08-19T01:08:40.787Z,3.00
2018-08-19T01:09:40.749Z,3.30
2018-08-19T01:10:40.753Z,3.00
2018-08-19T01:11:40.681Z,3.60
2018-08-19T01:12:40.649Z,3.00
2018-08-19T01:13:40.615Z,3.40
2018-08-19T01:14:40.580Z,3.10
2018-08-19T01:15:40.549Z,3.40
2018-08-19T01:16:40.544Z,3.00
2018-08-19T01:17:40.488Z,3.20
2018-08-19T01:18:40.462Z,3.30
2018-08-19T01:19:40.440Z,3.20
2018-08-19T01:20:40.406Z,3.30
2018-08-19T01:21:40.405Z,3.40
2018-08-19T01:22:40.350Z,3.40
2018-08-19T01:23:40.314Z,3.30
2018-08-19T01:24:40.302Z,3.10
2018-08-19T01:25:40.272Z,3.20
2018-08-19T01:26:40.285Z,3.30
2018-08-19T01:27:40.217Z,3.20
2018-08-19T01:28:40.185Z,3.40
2018-08-19T01:29:40.153Z,3.20
2018-08-19T01:30:40.130Z,3.20
2018-08-19T01:31:40.139Z,3.20
2018-08-19T01:32:40.081Z,3.30
2018-08-19T01:33:40.056Z,3.00
2018-08-19T01:34:40.030Z,3.50
2018-08-19T01:35:40.000Z,3.30
2018-08-19T01:36:40.012Z,3.20
2018-08-19T01:37:39.948Z,3.90
2018-08-19T01:38:39.916Z,3.60
2018-08-19T01:39:39.887Z,3.80
2018-08-19T01:40:39.862Z,3.20
2018-08-19T01:41:39.834Z,3.40
2018-08-19T01:42:39.838Z,3.60
2018-08-19T01:43:39.789Z,3.30
2018-08-19T01:44:39.753Z,3.40
2018-08-19T01:45:39.726Z,3.60
2018-08-19T01:46:39.701Z,3.10
2018-08-19T01:47:39.705Z,3.50
2018-08-19T01:48:39.640Z,3.10
2018-08-19T01:49:39.613Z,3.20
2018-08-19T01:50:39.577Z,3.00
2018-08-19T01:51:39.554Z,3.00
2018-08-19T01:52:39.545Z,2.70
2018-08-19T01:53:39.489Z,3.20
2018-08-19T01:54:39.468Z,3.10
2018-08-19T01:55:39.441Z,2.70
2018-08-19T01:56:39.415Z,2.90
2018-08-19T01:57:39.429Z,2.80
2018-08-19T01:58:39.377Z,3.00
2018-08-19T01:59:39.337Z,3.10
2018-08-19T02:00:39.308Z,2.80
2018-08-19T02:01:39.296Z,2.70
2018-08-19T02:02:39.262Z,2.90
2018-08-19T02:03:39.275Z,2.80
2018-08-19T02:04:39.219Z,2.90
2018-08-19T02:05:39.199Z,2.90
2018-08-19T02:06:39.169Z,2.80
2018-08-19T02:07:39.147Z,3.10
2018-08-19T02:08:39.149Z,2.90
2018-08-19T02:09:39.099Z,3.10
2018-08-19T02:10:39.080Z,3.00
2018-08-19T02:11:39.055Z,2.40
2018-08-19T02:12:39.025Z,2.60
2018-08-19T02:13:39.070Z,2.90
2018-08-19T02:14:38.985Z,2.60
2018-08-19T02:15:38.954Z,3.20
2018-08-19T02:16:38.928Z,2.30
2018-08-19T02:17:38.903Z,2.60
2018-08-19T02:18:38.883Z,2.60
2018-08-19T02:19:38.886Z,2.40
2018-08-19T02:20:38.929Z,2.50
2018-08-19T02:21:38.816Z,2.30
2018-08-19T02:22:38.791Z,2.50
2018-08-19T02:23:38.766Z,2.60
2018-08-19T02:24:38.772Z,2.20
2018-08-19T02:25:38.724Z,2.40
2018-08-19T02:26:38.700Z,2.40
2018-08-19T02:27:38.684Z,2.60
2018-08-19T02:28:38.670Z,2.40
2018-08-19T02:29:38.664Z,2.60
2018-08-19T02:30:38.620Z,2.60
2018-08-19T02:31:38.605Z,2.50
2018-08-19T02:32:38.592Z,2.60
2018-08-19T02:33:38.562Z,2.70
2018-08-19T02:34:38.572Z,2.50
2018-08-19T02:35:38.528Z,2.80
2018-08-19T02:36:38.520Z,2.60
2018-08-19T02:37:38.505Z,3.00
2018-08-19T02:38:38.483Z,3.40
2018-08-19T02:39:38.503Z,3.20
2018-08-19T02:40:38.458Z,3.50
2018-08-19T02:41:38.455Z,4.80
2018-08-19T02:42:38.421Z,4.90
2018-08-19T02:43:38.403Z,4.20
2018-08-19T02:44:38.381Z,4.40
2018-08-19T02:45:38.394Z,4.70
2018-08-19T02:46:38.352Z,4.50
2018-08-19T02:47:38.330Z,4.40
2018-08-19T02:48:38.321Z,4.30
2018-08-19T02:49:38.303Z,4.10
2018-08-19T02:50:38.313Z,3.80
2018-08-19T02:51:38.274Z,3.70
2018-08-19T02:52:38.251Z,3.10
2018-08-19T02:53:38.236Z,3.00
2018-08-19T02:54:38.217Z,3.10
2018-08-19T02:55:38.226Z,2.90
2018-08-19T02:56:38.184Z,2.70
2018-08-19T02:57:38.174Z,3.00
2018-08-19T02:58:38.170Z,2.50
2018-08-19T02:59:38.140Z,2.60
2018-08-19T03:00:38.152Z,2.60
2018-08-19T03:01:38.108Z,2.70
2018-08-19T03:02:38.096Z,2.80
2018-08-19T03:03:38.096Z,2.50
2018-08-19T03:04:38.068Z,2.70
2018-08-19T03:05:38.079Z,2.60
2018-08-19T03:06:38.039Z,2.50
2018-08-19T03:07:38.025Z,2.60
2018-08-19T03:08:38.006Z,2.60
2018-08-19T03:09:37.988Z,2.50
2018-08-19T03:10:38.009Z,2.40
2018-08-19T03:11:37.962Z,3.10
2018-08-19T03:12:37.941Z,2.60
2018-08-19T03:13:37.929Z,2.90
2018-08-19T03:14:37.918Z,2.70
2018-08-19T03:15:37.902Z,2.70
2018-08-19T03:16:37.914Z,2.60
2018-08-19T03:17:37.885Z,3.00
2018-08-19T03:18:37.860Z,2.70
2018-08-19T03:19:37.848Z,3.10
2018-08-19T03:20:37.860Z,2.90
2018-08-19T03:21:37.852Z,3.10
2018-08-19T03:22:37.814Z,3.60
2018-08-19T03:23:37.798Z,3.80
2018-08-19T03:24:37.792Z,3.50
2018-08-19T03:25:37.791Z,3.40
2018-08-19T03:26:37.806Z,3.70
2018-08-19T03:27:37.764Z,3.70
2018-08-19T03:28:37.764Z,3.60
2018-08-19T03:29:37.743Z,3.70
2018-08-19T03:30:37.736Z,3.50
2018-08-19T03:31:37.755Z,3.80
2018-08-19T03:32:37.725Z,3.60
2018-08-19T03:33:37.704Z,4.00
2018-08-19T03:34:37.696Z,3.70
2018-08-19T03:35:37.677Z,3.90
2018-08-19T03:36:37.663Z,4.50
2018-08-19T03:37:37.683Z,4.00
2018-08-19T03:38:37.636Z,3.90
2018-08-19T03:39:37.636Z,4.00
2018-08-19T03:40:37.603Z,4.40
2018-08-19T03:41:37.591Z,3.80
2018-08-19T03:42:37.603Z,4.30
2018-08-19T03:43:37.562Z,4.40
2018-08-19T03:44:37.531Z,4.20
2018-08-19T03:45:37.514Z,4.20
2018-08-19T03:46:37.498Z,4.70
2018-08-19T03:47:37.505Z,4.40
2018-08-19T03:48:37.462Z,4.60
2018-08-19T03:49:37.448Z,4.70
2018-08-19T03:50:37.443Z,4.30
2018-08-19T03:51:37.413Z,4.60
2018-08-19T03:52:37.420Z,4.90
2018-08-19T03:53:37.376Z,4.50
2018-08-19T03:54:37.360Z,4.40
2018-08-19T03:55:37.377Z,4.90
2018-08-19T03:56:37.313Z,5.30
2018-08-19T03:57:37.319Z,4.70
2018-08-19T03:58:37.267Z,4.30
2018-08-19T03:59:37.253Z,4.50
2018-08-19T04:00:37.230Z,4.60
2018-08-19T04:01:37.208Z,4.70
2018-08-19T04:02:37.216Z,4.70
2018-08-19T04:03:37.169Z,4.90
2018-08-19T04:04:37.158Z,4.90
2018-08-19T04:05:37.138Z,4.50
2018-08-19T04:06:37.125Z,4.50
2018-08-19T04:07:37.115Z,4.70
2018-08-19T04:08:37.128Z,4.40
2018-08-19T04:09:37.092Z,4.00
2018-08-19T04:10:37.080Z,4.20
2018-08-19T04:11:37.071Z,4.50
2018-08-19T04:12:37.060Z,4.40
2018-08-19T04:13:37.080Z,4.20
2018-08-19T04:14:37.046Z,3.90
2018-08-19T04:15:37.042Z,4.50
2018-08-19T04:16:37.032Z,3.90
2018-08-19T04:17:37.025Z,3.70
2018-08-19T04:18:37.066Z,4.40
2018-08-19T04:19:37.008Z,4.00
2018-08-19T04:20:37.001Z,4.60
2018-08-19T04:21:36.991Z,3.90
2018-08-19T04:22:36.982Z,4.10
2018-08-19T04:23:37.072Z,3.90
2018-08-19T04:24:36.964Z,4.10
2018-08-19T04:25:36.953Z,3.80
2018-08-19T04:26:36.951Z,3.70
2018-08-19T04:27:36.946Z,3.80
2018-08-19T04:28:36.941Z,3.80
2018-08-19T04:29:36.967Z,3.40
2018-08-19T04:30:36.928Z,3.60
2018-08-19T04:31:36.920Z,3.70
2018-08-19T04:32:36.916Z,3.90
2018-08-19T04:33:36.903Z,4.60
2018-08-19T04:34:36.921Z,3.80
2018-08-19T04:35:36.883Z,4.90
2018-08-19T04:36:36.873Z,8.70
2018-08-19T04:37:36.863Z,5.30
2018-08-19T04:38:36.856Z,4.10
2018-08-19T04:39:36.870Z,3.50
2018-08-19T04:40:36.839Z,2.80
2018-08-19T04:41:36.822Z,3.50
2018-08-19T04:42:36.812Z,2.80
2018-08-19T04:43:36.801Z,2.90
2018-08-19T04:44:36.819Z,2.90
2018-08-19T04:45:36.776Z,3.20
2018-08-19T04:46:36.774Z,3.20
2018-08-19T04:47:36.772Z,3.30
2018-08-19T04:48:36.749Z,3.20
2018-08-19T04:49:36.765Z,3.30
2018-08-19T04:50:36.727Z,3.30
2018-08-19T04:51:36.721Z,3.10
2018-08-19T04:52:36.713Z,3.20
2018-08-19T04:53:36.700Z,3.60
2018-08-19T04:54:36.733Z,3.50
2018-08-19T04:55:36.685Z,3.40
2018-08-19T04:56:36.680Z,3.40
2018-08-19T04:57:36.670Z,3.30
2018-08-19T04:58:36.666Z,3.30
2018-08-19T04:59:36.668Z,3.40
2018-08-19T05:00:36.680Z,3.50
2018-08-19T05:01:36.642Z,3.40
2018-08-19T05:02:36.712Z,3.30
2018-08-19T05:03:36.628Z,3.60
2018-08-19T05:04:36.615Z,3.30
2018-08-19T05:05:36.638Z,3.60
2018-08-19T05:06:36.605Z,3.20
2018-08-19T05:07:36.593Z,3.50
2018-08-19T05:08:36.590Z,3.50
2018-08-19T05:09:36.573Z,3.70
2018-08-19T05:10:36.608Z,3.20
2018-08-19T05:11:36.569Z,3.50
2018-08-19T05:12:36.561Z,3.20
2018-08-19T05:13:36.559Z,2.80
2018-08-19T05:14:36.548Z,2.50
2018-08-19T05:15:36.614Z,2.90
2018-08-19T05:16:36.546Z,2.80
2018-08-19T05:17:36.531Z,2.70
2018-08-19T05:18:36.543Z,2.60
2018-08-19T05:19:36.525Z,2.80
2018-08-19T05:20:36.545Z,2.70
2018-08-19T05:21:36.515Z,2.60
2018-08-19T05:22:36.628Z,2.50
2018-08-19T05:23:36.498Z,2.80
2018-08-19T05:24:36.481Z,3.00
2018-08-19T05:25:36.511Z,2.80
2018-08-19T05:26:36.467Z,2.60
2018-08-19T05:27:36.487Z,2.40
2018-08-19T05:28:36.460Z,2.60
2018-08-19T05:29:36.448Z,2.60
2018-08-19T05:30:36.472Z,2.20
2018-08-19T05:31:36.512Z,2.50
2018-08-19T05:32:36.429Z,2.40
2018-08-19T05:33:36.422Z,2.30
2018-08-19T05:34:36.416Z,3.00
2018-08-19T05:35:36.434Z,2.70
2018-08-19T05:36:36.417Z,3.00
2018-08-19T05:37:36.396Z,2.80
2018-08-19T05:38:36.391Z,2.80
2018-08-19T05:39:36.378Z,3.00
2018-08-19T05:40:36.402Z,2.90
2018-08-19T05:41:36.361Z,2.70
2018-08-19T05:42:36.358Z,2.80
2018-08-19T05:43:36.354Z,2.80
2018-08-19T05:44:36.341Z,3.00
2018-08-19T05:45:36.373Z,3.00
2018-08-19T05:46:36.350Z,2.90
2018-08-19T05:47:36.317Z,3.40
2018-08-19T05:48:36.310Z,2.90
2018-08-19T05:49:36.305Z,3.10
2018-08-19T05:50:36.286Z,3.40
2018-08-19T05:51:36.315Z,3.20
2018-08-19T05:52:36.259Z,3.40
2018-08-19T05:53:36.247Z,3.00
2018-08-19T05:54:36.232Z,3.10
2018-08-19T05:55:36.265Z,3.40
2018-08-19T05:56:36.244Z,3.30
2018-08-19T05:57:36.201Z,3.10
2018-08-19T05:58:36.187Z,3.20
2018-08-19T05:59:36.173Z,2.90
2018-08-19T06:00:36.176Z,3.10
2018-08-19T06:01:36.178Z,3.20
2018-08-19T06:02:36.140Z,3.40
2018-08-19T06:03:36.124Z,3.20
2018-08-19T06:04:36.112Z,2.80
2018-08-19T06:05:36.102Z,3.20
2018-08-19T06:06:36.126Z,3.20
2018-08-19T06:07:36.125Z,3.00
2018-08-19T06:08:36.053Z,3.50
2018-08-19T06:09:36.040Z,3.20
2018-08-19T06:10:36.036Z,4.00
2018-08-19T06:11:36.012Z,3.50
2018-08-19T06:12:36.029Z,4.00
2018-08-19T06:13:35.986Z,3.50
2018-08-19T06:14:35.974Z,3.60
2018-08-19T06:15:35.967Z,3.70
2018-08-19T06:16:35.953Z,3.50
2018-08-19T06:17:35.967Z,3.60
2018-08-19T06:18:35.927Z,3.80
2018-08-19T06:19:35.917Z,3.50
2018-08-19T06:20:35.923Z,3.70
2018-08-19T06:21:35.895Z,3.50
2018-08-19T06:22:35.913Z,3.50
2018-08-19T06:23:35.875Z,4.00
2018-08-19T06:24:35.881Z,4.20
2018-08-19T06:25:35.848Z,4.30
2018-08-19T06:26:35.843Z,4.20
2018-08-19T06:27:35.858Z,4.80
2018-08-19T06:28:35.836Z,4.60
2018-08-19T06:29:35.822Z,4.30
2018-08-19T06:30:35.818Z,4.30
2018-08-19T06:31:35.817Z,4.20
2018-08-19T06:32:35.837Z,4.50
2018-08-19T06:33:35.805Z,4.30
2018-08-19T06:34:35.909Z,4.30
2018-08-19T06:35:35.807Z,4.40
2018-08-19T06:36:35.806Z,4.10
2018-08-19T06:37:35.839Z,4.70
2018-08-19T06:38:35.794Z,4.30
2018-08-19T06:39:35.794Z,4.30
2018-08-19T06:40:35.791Z,4.30
2018-08-19T06:41:35.790Z,4.50
2018-08-19T06:42:35.785Z,4.50
2018-08-19T06:43:35.809Z,4.30
2018-08-19T06:44:35.778Z,4.30
2018-08-19T06:45:35.777Z,4.40
2018-08-19T06:46:35.776Z,4.80
2018-08-19T06:47:35.765Z,4.40
2018-08-19T06:48:35.791Z,4.60
2018-08-19T06:49:35.757Z,4.70
2018-08-19T06:50:35.749Z,4.40
2018-08-19T06:51:35.745Z,4.60
2018-08-19T06:52:35.748Z,4.60
2018-08-19T06:53:35.768Z,4.20
2018-08-19T06:54:35.738Z,4.30
2018-08-19T06:55:35.737Z,3.90
2018-08-19T06:56:35.731Z,4.40
2018-08-19T06:57:35.727Z,4.40
2018-08-19T06:58:35.747Z,4.90
2018-08-19T06:59:35.714Z,4.00
2018-08-19T07:00:35.708Z,4.30
2018-08-19T07:01:35.695Z,4.20
2018-08-19T07:02:35.686Z,4.10
2018-08-19T07:03:35.796Z,4.30
2018-08-19T07:04:35.656Z,4.40
2018-08-19T07:05:35.650Z,4.10
2018-08-19T07:06:35.631Z,4.60
2018-08-19T07:07:35.636Z,4.00
2018-08-19T07:08:35.638Z,4.30
2018-08-19T07:09:35.598Z,4.30
2018-08-19T07:10:35.587Z,4.40
2018-08-19T07:11:35.576Z,4.50
2018-08-19T07:12:35.564Z,4.40
2018-08-19T07:13:35.574Z,4.30
2018-08-19T07:14:35.540Z,4.30
2018-08-19T07:15:35.567Z,4.30
2018-08-19T07:16:35.502Z,4.00
2018-08-19T07:17:35.488Z,5.50
2018-08-19T07:18:35.538Z,5.10
2018-08-19T07:19:35.458Z,4.70
2018-08-19T07:20:35.440Z,4.90
2018-08-19T07:21:35.448Z,11.20
2018-08-19T07:22:35.423Z,14.90
2018-08-19T07:23:35.474Z,11.30
2018-08-19T07:24:35.376Z,5.90
2018-08-19T07:25:35.360Z,5.00
2018-08-19T07:26:35.349Z,4.30
2018-08-19T07:27:35.322Z,4.00
2018-08-19T07:28:35.326Z,4.40
2018-08-19T07:29:35.297Z,4.50
2018-08-19T07:30:35.273Z,4.00
2018-08-19T07:31:35.242Z,4.10
2018-08-19T07:32:35.223Z,4.00
2018-08-19T07:33:35.233Z,4.20
2018-08-19T07:34:35.207Z,4.00
2018-08-19T07:35:35.171Z,4.00
2018-08-19T07:36:35.146Z,4.30
2018-08-19T07:37:35.125Z,4.40
2018-08-19T07:38:35.129Z,3.90
2018-08-19T07:39:35.079Z,3.90
2018-08-19T07:40:35.053Z,4.00
2018-08-19T07:41:35.027Z,8.30
2018-08-19T07:42:35.007Z,5.40
2018-08-19T07:43:35.013Z,4.60
2018-08-19T07:44:34.949Z,4.90
2018-08-19T07:45:34.926Z,5.40
2018-08-19T07:46:34.919Z,4.60
2018-08-19T07:47:34.880Z,5.10
2018-08-19T07:48:34.857Z,5.00
2018-08-19T07:49:34.859Z,4.40
2018-08-19T07:50:34.808Z,5.30
2018-08-19T07:51:34.802Z,5.40
2018-08-19T07:52:34.758Z,4.90
2018-08-19T07:53:34.728Z,4.50
2018-08-19T07:54:34.725Z,4.60
2018-08-19T07:55:34.665Z,4.50
2018-08-19T07:56:34.643Z,5.30
2018-08-19T07:57:34.606Z,5.20
2018-08-19T07:58:34.589Z,4.60
2018-08-19T07:59:34.592Z,4.20
2018-08-19T08:00:34.525Z,4.30
2018-08-19T08:01:34.494Z,4.80
2018-08-19T08:02:34.464Z,4.00
2018-08-19T08:03:34.435Z,4.50
2018-08-19T08:04:34.436Z,4.50
2018-08-19T08:05:34.376Z,4.50
2018-08-19T08:06:34.347Z,4.50
2018-08-19T08:07:34.317Z,4.50
2018-08-19T08:08:34.291Z,4.80
2018-08-19T08:09:34.255Z,4.50
2018-08-19T08:10:34.245Z,4.60
2018-08-19T08:11:34.184Z,4.40
2018-08-19T08:12:34.149Z,4.30
2018-08-19T08:13:34.117Z,4.40
2018-08-19T08:14:34.088Z,4.10
2018-08-19T08:15:34.084Z,4.60
2018-08-19T08:16:34.024Z,4.10
2018-08-19T08:17:33.999Z,4.10
2018-08-19T08:18:33.974Z,4.20
2018-08-19T08:19:33.931Z,4.40
2018-08-19T08:20:33.932Z,4.20
2018-08-19T08:21:34.084Z,4.50
2018-08-19T08:22:33.826Z,3.90
2018-08-19T08:23:33.807Z,4.20
2018-08-19T08:24:33.764Z,3.90
2018-08-19T08:25:33.754Z,3.90
2018-08-19T08:26:33.694Z,4.30
2018-08-19T08:27:33.664Z,5.50
2018-08-19T08:28:33.641Z,4.70
2018-08-19T08:29:33.595Z,4.50
2018-08-19T08:30:33.587Z,4.30
2018-08-19T08:31:33.529Z,5.30
2018-08-19T08:32:33.492Z,4.60
2018-08-19T08:33:33.463Z,3.80
2018-08-19T08:34:33.430Z,4.00
2018-08-19T08:35:33.419Z,3.40
2018-08-19T08:36:33.352Z,4.00
2018-08-19T08:37:33.318Z,3.60
2018-08-19T08:38:33.280Z,4.00
2018-08-19T08:39:33.243Z,3.90
2018-08-19T08:40:33.219Z,3.70
2018-08-19T08:41:33.201Z,3.70
2018-08-19T08:42:33.136Z,4.20
2018-08-19T08:43:33.104Z,4.10
2018-08-19T08:44:33.117Z,3.70
2018-08-19T08:45:33.034Z,4.00
2018-08-19T08:46:33.020Z,3.90
2018-08-19T08:47:33.062Z,3.60
2018-08-19T08:48:32.922Z,3.30
2018-08-19T08:49:32.888Z,3.60
2018-08-19T08:50:32.844Z,3.40
2018-08-19T08:51:32.830Z,3.80
2018-08-19T08:52:32.767Z,3.80
2018-08-19T08:53:32.727Z,4.10
2018-08-19T08:54:32.691Z,3.50
2018-08-19T08:55:32.655Z,4.70
2018-08-19T08:56:32.686Z,4.80
2018-08-19T08:57:32.580Z,4.40
2018-08-19T08:58:32.544Z,9.80
2018-08-19T08:59:32.502Z,7.90
2018-08-19T09:00:32.465Z,5.70
2018-08-19T09:01:32.473Z,4.00
2018-08-19T09:02:32.397Z,4.10
2018-08-19T09:03:32.352Z,3.80
2018-08-19T09:04:32.295Z,3.90
2018-08-19T09:05:32.254Z,3.70
2018-08-19T09:06:32.203Z,3.60
2018-08-19T09:07:32.182Z,3.60
2018-08-19T09:08:32.106Z,3.80
2018-08-19T09:09:32.057Z,3.50
2018-08-19T09:10:32.023Z,3.30
2018-08-19T09:11:31.961Z,3.70
2018-08-19T09:12:31.940Z,3.50
2018-08-19T09:13:31.856Z,3.60
2018-08-19T09:14:31.806Z,3.80
2018-08-19T09:15:31.751Z,3.30
2018-08-19T09:16:31.701Z,3.40
2018-08-19T09:17:31.677Z,3.90
2018-08-19T09:18:31.600Z,3.30
2018-08-19T09:19:31.546Z,3.40
2018-08-19T09:20:31.495Z,3.80
2018-08-19T09:21:31.482Z,3.20
2018-08-19T09:22:31.432Z,3.40
2018-08-19T09:23:31.340Z,3.60
2018-08-19T09:24:31.279Z,3.30
2018-08-19T09:25:31.225Z,3.50
2018-08-19T09:26:31.167Z,3.30
2018-08-19T09:27:31.114Z,3.30
2018-08-19T09:28:31.092Z,3.60
2018-08-19T09:29:31.000Z,3.70
2018-08-19T09:30:30.948Z,3.20
2018-08-19T09:31:30.893Z,3.40
2018-08-19T09:32:30.839Z,3.80
2018-08-19T09:33:30.852Z,3.70
2018-08-19T09:34:30.725Z,3.30
2018-08-19T09:35:30.660Z,3.20
2018-08-19T09:36:30.616Z,3.10
2018-08-19T09:37:30.541Z,3.60
2018-08-19T09:38:30.504Z,3.00
2018-08-19T09:39:30.417Z,3.10
2018-08-19T09:40:30.355Z,3.30
2018-08-19T09:41:30.297Z,3.50
2018-08-19T09:42:30.224Z,3.20
2018-08-19T09:43:30.186Z,3.10
2018-08-19T09:44:30.092Z,2.80
2018-08-19T09:45:30.028Z,3.40
2018-08-19T09:46:29.961Z,2.80
2018-08-19T09:47:29.924Z,3.30
2018-08-19T09:48:29.858Z,3.00
2018-08-19T09:49:29.765Z,3.00
2018-08-19T09:50:29.696Z,3.00
2018-08-19T09:51:29.628Z,3.10
2018-08-19T09:52:29.562Z,3.10
2018-08-19T09:53:29.528Z,2.90
2018-08-19T09:54:29.433Z,3.40
2018-08-19T09:55:29.359Z,2.90
2018-08-19T09:56:29.294Z,3.10
2018-08-19T09:57:29.247Z,2.90
2018-08-19T09:58:29.156Z,3.20
2018-08-19T09:59:29.106Z,3.50
2018-08-19T10:00:29.020Z,3.30
2018-08-19T10:01:28.947Z,3.80
2018-08-19T10:02:28.879Z,4.20
2018-08-19T10:03:28.810Z,8.60
2018-08-19T10:04:28.760Z,5.30
2018-08-19T10:05:28.669Z,2.90
2018-08-19T10:06:28.602Z,2.90
2018-08-19T10:07:28.604Z,2.80
2018-08-19T10:08:28.463Z,3.00
2018-08-19T10:09:28.422Z,3.00
2018-08-19T10:10:28.329Z,3.00
2018-08-19T10:11:28.262Z,3.00
2018-08-19T10:12:28.197Z,2.70
2018-08-19T10:13:28.129Z,2.60
2018-08-19T10:14:28.089Z,2.70
2018-08-19T10:15:27.997Z,2.60
2018-08-19T10:16:27.935Z,3.00
2018-08-19T10:17:27.867Z,2.50
2018-08-19T10:18:27.804Z,2.60
2018-08-19T10:19:27.777Z,2.20
2018-08-19T10:20:27.673Z,2.40
2018-08-19T10:21:27.592Z,2.50
2018-08-19T10:22:27.518Z,2.60
2018-08-19T10:23:27.446Z,2.20
2018-08-19T10:24:27.371Z,2.30
2018-08-19T10:25:27.326Z,2.70
2018-08-19T10:26:27.256Z,2.30
2018-08-19T10:27:27.141Z,2.40
2018-08-19T10:28:27.061Z,2.80
2018-08-19T10:29:26.988Z,2.70
2018-08-19T10:30:26.931Z,2.40
2018-08-19T10:31:26.907Z,2.40
2018-08-19T10:32:26.762Z,2.70
2018-08-19T10:33:26.676Z,2.50
2018-08-19T10:34:26.598Z,2.50
2018-08-19T10:35:26.545Z,2.50
2018-08-19T10:36:26.449Z,2.50
2018-08-19T10:37:26.365Z,2.40
2018-08-19T10:38:26.276Z,2.50
2018-08-19T10:39:26.195Z,2.50
2018-08-19T10:40:26.137Z,2.30
2018-08-19T10:41:26.027Z,2.60
2018-08-19T10:42:25.940Z,2.40
2018-08-19T10:43:25.858Z,2.50
2018-08-19T10:44:25.780Z,2.50
2018-08-19T10:45:25.724Z,2.50
2018-08-19T10:46:25.618Z,2.60
2018-08-19T10:47:25.536Z,2.50
2018-08-19T10:48:25.457Z,2.50
2018-08-19T10:49:25.382Z,2.30
2018-08-19T10:50:25.324Z,2.30
2018-08-19T10:51:25.216Z,2.40
2018-08-19T10:52:25.131Z,2.30
2018-08-19T10:53:25.195Z,2.80
2018-08-19T10:54:24.956Z,2.10
2018-08-19T10:55:24.894Z,2.10
2018-08-19T10:56:24.777Z,2.40
2018-08-19T10:57:24.685Z,2.50
2018-08-19T10:58:24.675Z,2.20
2018-08-19T10:59:24.510Z,2.60
2018-08-19T11:00:24.446Z,2.20
2018-08-19T11:01:24.334Z,2.50
2018-08-19T11:02:24.253Z,2.50
2018-08-19T11:03:24.158Z,2.60
2018-08-19T11:04:24.066Z,2.70
2018-08-19T11:05:24.005Z,2.50
2018-08-19T11:06:23.896Z,2.60
2018-08-19T11:07:23.804Z,2.60
2018-08-19T11:08:23.708Z,2.60
2018-08-19T11:09:23.623Z,2.40
2018-08-19T11:10:23.550Z,2.70
2018-08-19T11:11:23.429Z,2.90
2018-08-19T11:12:23.339Z,2.50
2018-08-19T11:13:23.298Z,2.70
2018-08-19T11:14:23.186Z,2.70
2018-08-19T11:15:23.112Z,2.60
2018-08-19T11:16:22.971Z,2.50
2018-08-19T11:17:22.883Z,2.60
2018-08-19T11:18:22.796Z,2.80
2018-08-19T11:19:22.696Z,2.50
2018-08-19T11:20:22.599Z,2.60
2018-08-19T11:21:22.536Z,2.50
2018-08-19T11:22:22.409Z,2.40
2018-08-19T11:23:22.309Z,2.30
2018-08-19T11:24:22.212Z,2.20
2018-08-19T11:25:22.121Z,2.20
2018-08-19T11:26:22.040Z,2.50
2018-08-19T11:27:21.913Z,2.00
2018-08-19T11:28:21.818Z,2.00
2018-08-19T11:29:21.719Z,1.90
2018-08-19T11:30:21.620Z,2.20
2018-08-19T11:31:21.635Z,2.50
2018-08-19T11:32:21.422Z,2.20
2018-08-19T11:33:21.310Z,2.40
2018-08-19T11:34:21.208Z,2.10
2018-08-19T11:35:21.213Z,2.30
2018-08-19T11:36:21.036Z,2.00
2018-08-19T11:37:20.888Z,2.30
2018-08-19T11:38:20.783Z,2.10
2018-08-19T11:39:20.672Z,1.90
2018-08-19T11:40:20.570Z,2.50
2018-08-19T11:41:20.545Z,2.50
2018-08-19T11:42:20.370Z,2.40
2018-08-19T11:43:20.363Z,2.10
2018-08-19T11:44:20.147Z,2.50
2018-08-19T11:45:20.042Z,2.40
2018-08-19T11:46:19.930Z,2.30
2018-08-19T11:47:19.851Z,2.10
2018-08-19T11:48:19.713Z,2.20
2018-08-19T11:49:19.607Z,2.20
2018-08-19T11:50:19.500Z,2.00
2018-08-19T11:51:19.388Z,2.00
2018-08-19T11:52:19.313Z,2.30
2018-08-19T11:53:19.169Z,2.20
2018-08-19T11:54:19.054Z,2.00
2018-08-19T11:55:18.963Z,2.50
2018-08-19T11:56:18.833Z,2.20
2018-08-19T11:57:18.742Z,2.30
2018-08-19T11:58:18.604Z,2.40
2018-08-19T11:59:18.491Z,2.40
2018-08-19T12:00:18.377Z,2.10
2018-08-19T12:01:18.258Z,2.40
2018-08-19T12:02:18.169Z,2.20
2018-08-19T12:03:18.029Z,1.90
2018-08-19T12:04:17.917Z,2.30
2018-08-19T12:05:17.800Z,2.00
2018-08-19T12:06:17.687Z,2.20
2018-08-19T12:07:17.590Z,2.20
2018-08-19T12:08:17.441Z,2.30
2018-08-19T12:09:17.331Z,2.20
2018-08-19T12:10:17.211Z,2.40
2018-08-19T12:11:17.095Z,2.20
2018-08-19T12:12:17.001Z,2.20
2018-08-19T12:13:16.853Z,2.00
2018-08-19T12:14:16.734Z,2.40
2018-08-19T12:15:16.615Z,2.10
2018-08-19T12:16:16.489Z,2.40
2018-08-19T12:17:16.392Z,2.40
2018-08-19T12:18:16.277Z,2.20
2018-08-19T12:19:16.109Z,2.40
2018-08-19T12:20:15.979Z,2.40
2018-08-19T12:21:15.846Z,2.40
2018-08-19T12:22:15.749Z,2.30
2018-08-19T12:23:15.584Z,2.00
2018-08-19T12:24:15.454Z,2.30
2018-08-19T12:25:15.311Z,2.20
2018-08-19T12:26:15.186Z,2.00
2018-08-19T12:27:15.074Z,2.30
2018-08-19T12:28:14.922Z,2.30
2018-08-19T12:29:14.763Z,2.40
2018-08-19T12:30:14.619Z,2.00
2018-08-19T12:31:14.472Z,2.50
2018-08-19T12:32:14.329Z,2.10
2018-08-19T12:33:14.208Z,2.00
2018-08-19T12:34:14.034Z,2.60
2018-08-19T12:35:13.888Z,2.10
2018-08-19T12:36:13.745Z,2.50
2018-08-19T12:37:13.799Z,2.60
2018-08-19T12:38:13.498Z,2.90
2018-08-19T12:39:13.302Z,2.90
2018-08-19T12:40:13.145Z,2.90
2018-08-19T12:41:13.025Z,3.10
2018-08-19T12:42:12.883Z,2.90
2018-08-19T12:43:12.727Z,3.00
2018-08-19T12:44:12.590Z,2.70
2018-08-19T12:45:12.444Z,3.00
2018-08-19T12:46:12.299Z,3.10
2018-08-19T12:47:12.154Z,2.60
2018-08-19T12:48:12.005Z,2.80
2018-08-19T12:49:11.855Z,2.40
2018-08-19T12:50:11.798Z,3.00
2018-08-19T12:51:11.578Z,2.90
2018-08-19T12:52:11.433Z,2.90
2018-08-19T12:53:11.299Z,2.70
2018-08-19T12:54:11.144Z,3.20
2018-08-19T12:55:11.006Z,3.00
2018-08-19T12:56:10.862Z,3.00
2018-08-19T12:57:10.710Z,2.70
2018-08-19T12:58:10.612Z,3.10
2018-08-19T12:59:10.428Z,2.80
2018-08-19T13:00:10.286Z,3.20
2018-08-19T13:01:10.327Z,3.30
2018-08-19T13:02:09.994Z,2.70
2018-08-19T13:03:09.880Z,2.80
2018-08-19T13:04:09.708Z,3.20
2018-08-19T13:05:09.564Z,2.90
2018-08-19T13:06:09.411Z,3.00
2018-08-19T13:07:09.269Z,3.10
2018-08-19T13:08:09.182Z,3.10
2018-08-19T13:09:08.976Z,3.00
2018-08-19T13:10:08.827Z,2.80
2018-08-19T13:11:08.678Z,2.90
2018-08-19T13:12:08.529Z,2.90
2018-08-19T13:13:08.402Z,3.30
2018-08-19T13:14:08.228Z,3.00
2018-08-19T13:15:08.070Z,3.00
2018-08-19T13:16:07.923Z,3.20
2018-08-19T13:17:07.757Z,3.10
2018-08-19T13:18:07.632Z,2.80